Corinthiakos — A8UL2 — position and weather

sailwx.info

Track history (hours):
 
Tides and Currents Weather Stations Pressure Air Temp Water Temp Dewpoint Dewpoint Depression Visibility Wind Speed Wind Dir Waves Ship Positions

Corinthiakos

Last reported at 2016-Aug-30 12:33 UTC. Time now 2016-Aug-30 13:14 UTC.
Position N 22°04' E 114°29'.

Length 262 m; draft 10.3 m.

Type: Cargo ship. MMSI: 636014516.

Date/timePositionNaut miles runAvg speedWind from/ knotsBaromVisibWave heightAir tempDewpointWater temp
2016-Aug-30 12:33N 22°04' E 114°29'0 0.0
2016-Aug-30 11:32N 22°04' E 114°29'0 0.0
2016-Aug-30 10:28N 22°04' E 114°29'0 0.1
2016-Aug-30 09:31N 22°04' E 114°29'0 0.0
2016-Aug-30 08:30N 22°04' E 114°29'0 0.1
2016-Aug-30 07:31N 22°04' E 114°29'0 0.0
2016-Aug-30 06:33N 22°04' E 114°29'0 0.0
2016-Aug-30 04:30N 22°04' E 114°29'0 0.0
2016-Aug-30 03:30N 22°04' E 114°29'2 2.1
2016-Aug-30 02:34N 22°04' E 114°31'29213.3
2016-Aug-29 04:33N 22°27' E 119°46'1211.7
2016-Aug-29 03:34N 22°30' E 119°58'1212.4
2016-Aug-29 02:34N 22°32' E 120°11'8 8.0
2016-Aug-29 01:33N 22°33' E 120°20'0 0.0
2016-Aug-29 00:15N 22°33' E 120°20'0 0.0
2016-Aug-28 23:33N 22°33' E 120°20'0 0.0
2016-Aug-28 18:15N 22°33' E 120°20'0 0.0
2016-Aug-28 17:11N 22°33' E 120°20'0 0.0
2016-Aug-28 16:34N 22°33' E 120°20'0 0.0
2016-Aug-28 15:23N 22°33' E 120°20'0 0.0
2016-Aug-28 13:29N 22°33' E 120°20'0 0.0
2016-Aug-28 12:32N 22°33' E 120°20'0 0.0
2016-Aug-28 11:33N 22°33' E 120°20'0 0.0
2016-Aug-28 09:25N 22°33' E 120°20'0 0.0
2016-Aug-28 05:28N 22°33' E 120°20'1 1.2
2016-Aug-28 04:33N 22°33' E 120°19'8 7.8
2016-Aug-28 03:33N 22°31' E 120°10'1615.7
2016-Aug-28 02:33N 22°27' E 119°54'  
2016-Aug-25 00:23N 01°17' E 104°16'1821.3
2016-Aug-24 23:33N 01°14' E 103°58'8 7.2
2016-Aug-24 22:30N 01°16' E 103°51'0 0.0
2016-Aug-24 21:30N 01°16' E 103°51'0 0.0
2016-Aug-24 20:30N 01°16' E 103°51'0 0.0
2016-Aug-24 19:32N 01°16' E 103°51'0 0.0
2016-Aug-24 18:32N 01°16' E 103°51'0 0.0
2016-Aug-24 17:29N 01°16' E 103°51'0 0.0
2016-Aug-24 16:29N 01°16' E 103°51'0 0.0
2016-Aug-24 15:32N 01°16' E 103°51'0 0.0
2016-Aug-24 14:32N 01°16' E 103°51'0 0.0
2016-Aug-24 13:26N 01°16' E 103°51'0 0.0
2016-Aug-24 12:32N 01°16' E 103°51'0 0.0
2016-Aug-24 11:32N 01°16' E 103°51'0 0.0
2016-Aug-24 10:31N 01°16' E 103°51'0 0.0
2016-Aug-24 09:29N 01°16' E 103°51'0 0.2
2016-Aug-24 08:33N 01°16' E 103°51'4 4.1
2016-Aug-24 07:33N 01°12' E 103°52'1211.7
2016-Aug-24 06:33N 01°04' E 103°42'  
Track history (hours):
 
Tides and Currents Weather Stations Pressure Air Temp Water Temp Dewpoint Dewpoint Depression Visibility Wind Speed Wind Dir Waves Ship Positions

Corinthiakos

Last reported at 2016-Aug-30 12:33 UTC. Time now 2016-Aug-30 13:14 UTC.
Position N 22°04' E 114°29'.

Length 262 m; draft 10.3 m.

Type: Cargo ship. MMSI: 636014516.

Date/timePositionNaut miles runAvg speedWind from/ knotsBaromVisibWave heightAir tempDewpointWater temp
2016-Aug-30 12:33N 22°04' E 114°29'0 0.0
2016-Aug-30 11:32N 22°04' E 114°29'0 0.0
2016-Aug-30 10:28N 22°04' E 114°29'0 0.1
2016-Aug-30 09:31N 22°04' E 114°29'0 0.0
2016-Aug-30 08:30N 22°04' E 114°29'0 0.1
2016-Aug-30 07:31N 22°04' E 114°29'0 0.0
2016-Aug-30 06:33N 22°04' E 114°29'0 0.0
2016-Aug-30 04:30N 22°04' E 114°29'0 0.0
2016-Aug-30 03:30N 22°04' E 114°29'2 2.1
2016-Aug-30 02:34N 22°04' E 114°31'29213.3
2016-Aug-29 04:33N 22°27' E 119°46'1211.7
2016-Aug-29 03:34N 22°30' E 119°58'1212.4
2016-Aug-29 02:34N 22°32' E 120°11'8 8.0
2016-Aug-29 01:33N 22°33' E 120°20'0 0.0
2016-Aug-29 00:15N 22°33' E 120°20'0 0.0
2016-Aug-28 23:33N 22°33' E 120°20'0 0.0
2016-Aug-28 18:15N 22°33' E 120°20'0 0.0
2016-Aug-28 17:11N 22°33' E 120°20'0 0.0
2016-Aug-28 16:34N 22°33' E 120°20'0 0.0
2016-Aug-28 15:23N 22°33' E 120°20'0 0.0
2016-Aug-28 13:29N 22°33' E 120°20'0 0.0
2016-Aug-28 12:32N 22°33' E 120°20'0 0.0
2016-Aug-28 11:33N 22°33' E 120°20'0 0.0
2016-Aug-28 09:25N 22°33' E 120°20'0 0.0
2016-Aug-28 05:28N 22°33' E 120°20'1 1.2
2016-Aug-28 04:33N 22°33' E 120°19'8 7.8
2016-Aug-28 03:33N 22°31' E 120°10'1615.7
2016-Aug-28 02:33N 22°27' E 119°54'  
2016-Aug-25 00:23N 01°17' E 104°16'1821.3
2016-Aug-24 23:33N 01°14' E 103°58'8 7.2
2016-Aug-24 22:30N 01°16' E 103°51'0 0.0
2016-Aug-24 21:30N 01°16' E 103°51'0 0.0
2016-Aug-24 20:30N 01°16' E 103°51'0 0.0
2016-Aug-24 19:32N 01°16' E 103°51'0 0.0
2016-Aug-24 18:32N 01°16' E 103°51'0 0.0
2016-Aug-24 17:29N 01°16' E 103°51'0 0.0
2016-Aug-24 16:29N 01°16' E 103°51'0 0.0
2016-Aug-24 15:32N 01°16' E 103°51'0 0.0
2016-Aug-24 14:32N 01°16' E 103°51'0 0.0
2016-Aug-24 13:26N 01°16' E 103°51'0 0.0
2016-Aug-24 12:32N 01°16' E 103°51'0 0.0
2016-Aug-24 11:32N 01°16' E 103°51'0 0.0
2016-Aug-24 10:31N 01°16' E 103°51'0 0.0
2016-Aug-24 09:29N 01°16' E 103°51'0 0.2
2016-Aug-24 08:33N 01°16' E 103°51'4 4.1
2016-Aug-24 07:33N 01°12' E 103°52'1211.7
2016-Aug-24 06:33N 01°04' E 103°42'  

Dump ship's entire track history